Chesapeake — WDD3041 — position and weather

sailwx.info

Track history (hours):
 
Tides and Currents Weather Stations Pressure Air Temp Water Temp Dewpoint Dewpoint Depression Visibility Wind Speed Wind Dir Waves Ship Positions

Chesapeake

Owner: Vane Line Bunkering, Baltimore, MD. More information available from US FCC via Universal Licensing System and Coast Guard Vessel Documentation Center.

Last reported at 2015-May-23 02:33 UTC. Time now 2015-May-23 02:44 UTC.
Position N 39°54' W 075°12'.

Length 34 m; draft 16 m.

Type: Tug. MMSI: 367123040.

Date/timePositionNaut miles runAvg speedWind from/ knotsBaromVisibWave heightAir tempDewpointWater temp
2015-May-23 02:33N 39°54' W 075°12'1 0.7
2015-May-23 01:33N 39°53' W 075°12'0 0.0
2015-May-23 00:33N 39°53' W 075°12'0 0.5
2015-May-22 23:34N 39°54' W 075°12'4 4.4
2015-May-22 22:33N 39°51' W 075°17'69 7.6
2015-May-22 13:26N 39°14' W 076°33'1 1.0
2015-May-22 12:31N 39°15' W 076°34'0 0.0
2015-May-22 11:15N 39°15' W 076°34'0 0.0
2015-May-22 10:27N 39°15' W 076°34'0 0.0
2015-May-22 09:24N 39°15' W 076°34'0 0.0
2015-May-22 08:33N 39°15' W 076°34'2 1.0
2015-May-22 06:33N 39°13' W 076°32'1 0.2
2015-May-22 00:10N 39°13' W 076°34'1 1.9
2015-May-21 23:33N 39°15' W 076°34'0 0.4
2015-May-21 22:12N 39°15' W 076°34'0 0.0
2015-May-21 21:25N 39°15' W 076°34'0 0.0
2015-May-21 20:31N 39°15' W 076°34'1 0.3
2015-May-21 16:33N 39°13' W 076°34'2 1.9
2015-May-21 15:33N 39°13' W 076°32'19 6.0
2015-May-21 12:19N 39°22' W 076°09'7 8.8
2015-May-21 11:33N 39°25' W 076°02'10 9.8
2015-May-21 10:33N 39°32' W 075°52'1110.6
2015-May-21 09:33N 39°33' W 075°39'3 3.0
2015-May-21 08:34N 39°35' W 075°36'0 0.0
2015-May-21 07:33N 39°35' W 075°36'0 0.0
2015-May-21 06:33N 39°35' W 075°36'0 0.0
2015-May-21 05:33N 39°35' W 075°36'0 0.0
2015-May-21 04:33N 39°35' W 075°36'0 0.0
2015-May-21 03:33N 39°35' W 075°36'0 0.0
2015-May-21 02:33N 39°35' W 075°36'0 0.0
2015-May-21 01:34N 39°35' W 075°36'0 0.0
2015-May-21 00:33N 39°35' W 075°36'0 0.0
2015-May-20 23:33N 39°35' W 075°36'2 1.8
2015-May-20 22:33N 39°37' W 075°35'1111.4
2015-May-20 21:34N 39°47' W 075°28'10 9.7
2015-May-20 20:33N 39°51' W 075°16'4 4.1
2015-May-20 19:33N 39°54' W 075°12'0 0.0
2015-May-20 18:33N 39°54' W 075°12'0 0.0
2015-May-20 17:33N 39°54' W 075°12'0 0.0
2015-May-20 16:33N 39°54' W 075°12'0 0.0
2015-May-20 15:33N 39°54' W 075°12'0 0.0
2015-May-20 14:33N 39°54' W 075°12'1 0.8
2015-May-20 13:33N 39°53' W 075°12'3 3.4
2015-May-20 12:33N 39°55' W 075°08'5 5.0
2015-May-20 11:33N 39°59' W 075°04'1 0.7
2015-May-20 10:34N 39°59' W 075°05'2 1.8
2015-May-20 09:33N 39°58' W 075°07'6 6.0
2015-May-20 08:33N 39°53' W 075°12'1 0.6
2015-May-20 07:33N 39°54' W 075°12'0 0.0
2015-May-20 06:33N 39°54' W 075°12'0 0.0
2015-May-20 05:33N 39°54' W 075°12'0 0.0
2015-May-20 04:33N 39°54' W 075°12'0 0.0
2015-May-20 03:33N 39°54' W 075°12'2 1.7
2015-May-20 02:33N 39°53' W 075°10'3 2.7
2015-May-20 01:33N 39°55' W 075°08'0 0.0
2015-May-20 00:33N 39°55' W 075°08'0 0.0
2015-May-19 23:33N 39°55' W 075°08'0 0.0
2015-May-19 22:33N 39°55' W 075°08'1 1.2
2015-May-19 21:33N 39°54' W 075°08'3 2.7
2015-May-19 20:33N 39°53' W 075°12'3 2.9
2015-May-19 19:33N 39°54' W 075°08'0 0.0
2015-May-19 18:33N 39°54' W 075°08'0 0.0
2015-May-19 17:33N 39°54' W 075°08'0 0.0
2015-May-19 16:33N 39°54' W 075°08'0 0.0
2015-May-19 15:33N 39°54' W 075°08'4 3.8
2015-May-19 14:33N 39°55' W 075°13'0 0.0
2015-May-19 13:33N 39°55' W 075°13'0 0.0
2015-May-19 12:33N 39°55' W 075°13'0 0.0
2015-May-19 11:33N 39°55' W 075°13'0 0.0
2015-May-19 10:33N 39°55' W 075°13'1 1.0
2015-May-19 09:33N 39°54' W 075°12'0 0.0
2015-May-19 08:33N 39°54' W 075°12'0 0.0
2015-May-19 07:33N 39°54' W 075°12'0 0.1
2015-May-19 06:33N 39°54' W 075°12'0 0.0
2015-May-19 05:33N 39°54' W 075°12'0 0.0
2015-May-19 04:33N 39°54' W 075°12'0 0.0
2015-May-19 03:33N 39°54' W 075°12'0 0.0
2015-May-19 02:33N 39°54' W 075°12'0 0.0
2015-May-19 01:33N 39°54' W 075°12'0 0.0
2015-May-19 00:33N 39°54' W 075°12'0 0.0
2015-May-18 23:33N 39°54' W 075°12'0 0.0
2015-May-18 22:33N 39°54' W 075°12'0 0.0
2015-May-18 21:33N 39°54' W 075°12'0 0.0
2015-May-18 20:34N 39°54' W 075°12'0 0.0
2015-May-18 19:33N 39°54' W 075°12'0 0.0
2015-May-18 18:33N 39°54' W 075°12'0 0.0
2015-May-18 17:33N 39°54' W 075°12'0 0.0
2015-May-18 16:33N 39°54' W 075°12'0 0.0
2015-May-18 15:34N 39°54' W 075°12'0 0.0
2015-May-18 14:33N 39°54' W 075°12'0 0.0
2015-May-18 13:33N 39°54' W 075°12'0 0.0
2015-May-18 12:33N 39°54' W 075°12'0 0.0
2015-May-18 11:33N 39°54' W 075°12'0 0.0
2015-May-18 10:33N 39°54' W 075°12'0 0.0
2015-May-18 09:33N 39°54' W 075°12'0 0.0
2015-May-18 08:33N 39°54' W 075°12'0 0.0
2015-May-18 07:33N 39°54' W 075°12'0 0.0
2015-May-18 06:33N 39°54' W 075°12'0 0.0
2015-May-18 05:33N 39°54' W 075°12'0 0.0
2015-May-18 04:33N 39°54' W 075°12'0 0.0
2015-May-18 03:33N 39°54' W 075°12'0 0.0
2015-May-18 02:33N 39°54' W 075°12'0 0.0
2015-May-18 01:33N 39°54' W 075°12'0 0.0
2015-May-18 00:33N 39°54' W 075°12'0 0.0
2015-May-17 23:34N 39°54' W 075°12'7 6.6
2015-May-17 22:33N 39°51' W 075°20'9 9.0
2015-May-17 21:33N 39°45' W 075°29'9 8.7
2015-May-17 20:33N 39°37' W 075°35'6 6.3
2015-May-17 19:33N 39°33' W 075°40'8 8.1
2015-May-17 18:33N 39°32' W 075°51'9 9.3
2015-May-17 17:33N 39°26' W 076°00'10 9.5
2015-May-17 16:33N 39°21' W 076°10'16 8.0
2015-May-17 14:31N 39°11' W 076°27'7 6.5
2015-May-17 13:29N 39°15' W 076°34'0 0.0
2015-May-17 12:29N 39°15' W 076°34'0 0.0
2015-May-17 11:33N 39°15' W 076°34'1 1.2
2015-May-17 10:33N 39°16' W 076°33'1 1.1
2015-May-17 09:32N 39°15' W 076°34'0 0.0
2015-May-17 08:31N 39°15' W 076°34'0 0.0
2015-May-17 07:33N 39°15' W 076°34'0 0.0
2015-May-17 06:33N 39°15' W 076°34'0 0.0
2015-May-17 05:32N 39°15' W 076°34'0 0.0
2015-May-17 04:32N 39°15' W 076°34'0 0.0
2015-May-17 03:33N 39°15' W 076°34'1 0.3
2015-May-17 01:32N 39°15' W 076°34'1 0.6
2015-May-17 00:31N 39°15' W 076°34'0 0.0
2015-May-16 23:30N 39°15' W 076°34'0 0.0
2015-May-16 22:33N 39°15' W 076°34'0 0.0
2015-May-16 21:33N 39°15' W 076°34'0 0.0
2015-May-16 20:33N 39°15' W 076°34'0 0.0
2015-May-16 19:18N 39°15' W 076°34'0 0.0
2015-May-16 17:30N 39°15' W 076°34'0 0.0
2015-May-16 16:13N 39°15' W 076°34'2 2.9
2015-May-16 15:26N 39°17' W 076°35'2 2.4
2015-May-16 14:30N 39°15' W 076°34'0 0.0
2015-May-16 13:23N 39°15' W 076°34'2 2.3
2015-May-16 12:31N 39°16' W 076°35'2 1.7
2015-May-16 11:25N 39°15' W 076°34'0 0.2
2015-May-16 10:12N 39°15' W 076°34'0 0.0
2015-May-16 09:23N 39°15' W 076°34'0 0.0
2015-May-16 08:30N 39°15' W 076°34'0 0.0
2015-May-16 07:23N 39°15' W 076°34'0 0.0
2015-May-16 06:26N 39°15' W 076°34'0 0.0
2015-May-16 05:20N 39°15' W 076°34'0 0.0
2015-May-16 04:24N 39°15' W 076°34'0 0.0
2015-May-16 03:33N 39°15' W 076°34'0 0.0
2015-May-16 02:28N 39°15' W 076°34'0 0.0
2015-May-16 01:32N 39°15' W 076°34'0 0.0
2015-May-16 00:32N 39°15' W 076°34'0 0.0
2015-May-15 23:32N 39°15' W 076°34'0 0.0
2015-May-15 22:30N 39°15' W 076°34'0 0.0
2015-May-15 21:33N 39°15' W 076°34'0 0.0
2015-May-15 19:30N 39°15' W 076°34'0 0.0
2015-May-15 18:31N 39°15' W 076°34'1 0.5
2015-May-15 16:23N 39°16' W 076°33'0 0.0
2015-May-15 15:31N 39°16' W 076°33'0 0.0
2015-May-15 14:28N 39°16' W 076°33'0 0.0
2015-May-15 12:21N 39°16' W 076°33'0 0.0
2015-May-15 11:33N 39°16' W 076°33'0 0.0
2015-May-15 10:17N 39°16' W 076°33'0 0.0
2015-May-15 09:26N 39°16' W 076°33'0 0.0
2015-May-15 08:19N 39°16' W 076°33'0 0.0
2015-May-15 07:33N 39°16' W 076°33'4 3.7
2015-May-15 06:33N 39°12' W 076°31'27 8.9
2015-May-15 03:33N 39°26' W 076°01'1212.0
2015-May-15 02:33N 39°32' W 075°48'1211.6
2015-May-15 01:33N 39°34' W 075°33'9 8.5
2015-May-15 00:33N 39°42' W 075°31'9 9.1
2015-May-14 23:33N 39°49' W 075°23'9 9.3
2015-May-14 22:33N 39°53' W 075°12'1 0.8
2015-May-14 21:30N 39°54' W 075°12'0 0.0
2015-May-14 20:25N 39°54' W 075°12'0 0.0
2015-May-14 19:32N 39°54' W 075°12'0 0.0
2015-May-14 18:32N 39°54' W 075°12'0 0.0
2015-May-14 17:30N 39°54' W 075°12'0 0.0
2015-May-14 16:31N 39°54' W 075°12'0 0.0
2015-May-14 15:23N 39°54' W 075°12'0 0.0
2015-May-14 14:32N 39°54' W 075°12'0 0.0
2015-May-14 13:33N 39°54' W 075°12'0 0.0
2015-May-14 12:33N 39°54' W 075°12'0 0.0
2015-May-14 11:31N 39°54' W 075°12'0 0.0
2015-May-14 10:32N 39°54' W 075°12'0 0.0
2015-May-14 09:32N 39°54' W 075°12'0 0.0
2015-May-14 08:33N 39°54' W 075°12'0 0.0
2015-May-14 07:31N 39°54' W 075°12'0 0.0
2015-May-14 06:31N 39°54' W 075°12'0 0.0
2015-May-14 05:32N 39°54' W 075°12'0 0.0
2015-May-14 04:33N 39°54' W 075°12'0 0.0
2015-May-14 03:33N 39°54' W 075°12'0 0.0
2015-May-14 02:31N 39°54' W 075°12'0 0.0
2015-May-14 01:32N 39°54' W 075°12'0 0.0
2015-May-14 00:32N 39°54' W 075°12'0 0.0
2015-May-13 23:33N 39°54' W 075°12'0 0.0
2015-May-13 22:31N 39°54' W 075°12'0 0.0
2015-May-13 21:31N 39°54' W 075°12'0 0.0
2015-May-13 20:29N 39°54' W 075°12'0 0.0
2015-May-13 19:33N 39°54' W 075°12'0 0.0
2015-May-13 18:33N 39°54' W 075°12'0 0.0
2015-May-13 17:31N 39°54' W 075°12'0 0.0
2015-May-13 16:32N 39°54' W 075°12'0 0.0
2015-May-13 15:29N 39°54' W 075°12'0 0.0
2015-May-13 14:33N 39°54' W 075°12'0 0.0
2015-May-13 13:31N 39°54' W 075°12'0 0.0
2015-May-13 12:31N 39°54' W 075°12'0 0.0
2015-May-13 11:32N 39°54' W 075°12'0 0.0
2015-May-13 10:30N 39°54' W 075°12'0 0.0
2015-May-13 09:33N 39°54' W 075°12'0 0.0
2015-May-13 08:31N 39°54' W 075°12'0 0.0
2015-May-13 07:32N 39°54' W 075°12'0 0.0
2015-May-13 06:33N 39°54' W 075°12'0 0.0
2015-May-13 05:33N 39°54' W 075°12'0 0.0
2015-May-13 04:31N 39°54' W 075°12'0 0.0
2015-May-13 03:32N 39°54' W 075°12'  
Track history (hours):
 
Tides and Currents Weather Stations Pressure Air Temp Water Temp Dewpoint Dewpoint Depression Visibility Wind Speed Wind Dir Waves Ship Positions

Chesapeake

Owner: Vane Line Bunkering, Baltimore, MD. More information available from US FCC via Universal Licensing System and Coast Guard Vessel Documentation Center.

Last reported at 2015-May-23 02:33 UTC. Time now 2015-May-23 02:44 UTC.
Position N 39°54' W 075°12'.

Length 34 m; draft 16 m.

Type: Tug. MMSI: 367123040.

Date/timePositionNaut miles runAvg speedWind from/ knotsBaromVisibWave heightAir tempDewpointWater temp
2015-May-23 02:33N 39°54' W 075°12'1 0.7
2015-May-23 01:33N 39°53' W 075°12'0 0.0
2015-May-23 00:33N 39°53' W 075°12'0 0.5
2015-May-22 23:34N 39°54' W 075°12'4 4.4
2015-May-22 22:33N 39°51' W 075°17'69 7.6
2015-May-22 13:26N 39°14' W 076°33'1 1.0
2015-May-22 12:31N 39°15' W 076°34'0 0.0
2015-May-22 11:15N 39°15' W 076°34'0 0.0
2015-May-22 10:27N 39°15' W 076°34'0 0.0
2015-May-22 09:24N 39°15' W 076°34'0 0.0
2015-May-22 08:33N 39°15' W 076°34'2 1.0
2015-May-22 06:33N 39°13' W 076°32'1 0.2
2015-May-22 00:10N 39°13' W 076°34'1 1.9
2015-May-21 23:33N 39°15' W 076°34'0 0.4
2015-May-21 22:12N 39°15' W 076°34'0 0.0
2015-May-21 21:25N 39°15' W 076°34'0 0.0
2015-May-21 20:31N 39°15' W 076°34'1 0.3
2015-May-21 16:33N 39°13' W 076°34'2 1.9
2015-May-21 15:33N 39°13' W 076°32'19 6.0
2015-May-21 12:19N 39°22' W 076°09'7 8.8
2015-May-21 11:33N 39°25' W 076°02'10 9.8
2015-May-21 10:33N 39°32' W 075°52'1110.6
2015-May-21 09:33N 39°33' W 075°39'3 3.0
2015-May-21 08:34N 39°35' W 075°36'0 0.0
2015-May-21 07:33N 39°35' W 075°36'0 0.0
2015-May-21 06:33N 39°35' W 075°36'0 0.0
2015-May-21 05:33N 39°35' W 075°36'0 0.0
2015-May-21 04:33N 39°35' W 075°36'0 0.0
2015-May-21 03:33N 39°35' W 075°36'0 0.0
2015-May-21 02:33N 39°35' W 075°36'0 0.0
2015-May-21 01:34N 39°35' W 075°36'0 0.0
2015-May-21 00:33N 39°35' W 075°36'0 0.0
2015-May-20 23:33N 39°35' W 075°36'2 1.8
2015-May-20 22:33N 39°37' W 075°35'1111.4
2015-May-20 21:34N 39°47' W 075°28'10 9.7
2015-May-20 20:33N 39°51' W 075°16'4 4.1
2015-May-20 19:33N 39°54' W 075°12'0 0.0
2015-May-20 18:33N 39°54' W 075°12'0 0.0
2015-May-20 17:33N 39°54' W 075°12'0 0.0
2015-May-20 16:33N 39°54' W 075°12'0 0.0
2015-May-20 15:33N 39°54' W 075°12'0 0.0
2015-May-20 14:33N 39°54' W 075°12'1 0.8
2015-May-20 13:33N 39°53' W 075°12'3 3.4
2015-May-20 12:33N 39°55' W 075°08'5 5.0
2015-May-20 11:33N 39°59' W 075°04'1 0.7
2015-May-20 10:34N 39°59' W 075°05'2 1.8
2015-May-20 09:33N 39°58' W 075°07'6 6.0
2015-May-20 08:33N 39°53' W 075°12'1 0.6
2015-May-20 07:33N 39°54' W 075°12'0 0.0
2015-May-20 06:33N 39°54' W 075°12'0 0.0
2015-May-20 05:33N 39°54' W 075°12'0 0.0
2015-May-20 04:33N 39°54' W 075°12'0 0.0
2015-May-20 03:33N 39°54' W 075°12'2 1.7
2015-May-20 02:33N 39°53' W 075°10'3 2.7
2015-May-20 01:33N 39°55' W 075°08'0 0.0
2015-May-20 00:33N 39°55' W 075°08'0 0.0
2015-May-19 23:33N 39°55' W 075°08'0 0.0
2015-May-19 22:33N 39°55' W 075°08'1 1.2
2015-May-19 21:33N 39°54' W 075°08'3 2.7
2015-May-19 20:33N 39°53' W 075°12'3 2.9
2015-May-19 19:33N 39°54' W 075°08'0 0.0
2015-May-19 18:33N 39°54' W 075°08'0 0.0
2015-May-19 17:33N 39°54' W 075°08'0 0.0
2015-May-19 16:33N 39°54' W 075°08'0 0.0
2015-May-19 15:33N 39°54' W 075°08'4 3.8
2015-May-19 14:33N 39°55' W 075°13'0 0.0
2015-May-19 13:33N 39°55' W 075°13'0 0.0
2015-May-19 12:33N 39°55' W 075°13'0 0.0
2015-May-19 11:33N 39°55' W 075°13'0 0.0
2015-May-19 10:33N 39°55' W 075°13'1 1.0
2015-May-19 09:33N 39°54' W 075°12'0 0.0
2015-May-19 08:33N 39°54' W 075°12'0 0.0
2015-May-19 07:33N 39°54' W 075°12'0 0.1
2015-May-19 06:33N 39°54' W 075°12'0 0.0
2015-May-19 05:33N 39°54' W 075°12'0 0.0
2015-May-19 04:33N 39°54' W 075°12'0 0.0
2015-May-19 03:33N 39°54' W 075°12'0 0.0
2015-May-19 02:33N 39°54' W 075°12'0 0.0
2015-May-19 01:33N 39°54' W 075°12'0 0.0
2015-May-19 00:33N 39°54' W 075°12'0 0.0
2015-May-18 23:33N 39°54' W 075°12'0 0.0
2015-May-18 22:33N 39°54' W 075°12'0 0.0
2015-May-18 21:33N 39°54' W 075°12'0 0.0
2015-May-18 20:34N 39°54' W 075°12'0 0.0
2015-May-18 19:33N 39°54' W 075°12'0 0.0
2015-May-18 18:33N 39°54' W 075°12'0 0.0
2015-May-18 17:33N 39°54' W 075°12'0 0.0
2015-May-18 16:33N 39°54' W 075°12'0 0.0
2015-May-18 15:34N 39°54' W 075°12'0 0.0
2015-May-18 14:33N 39°54' W 075°12'0 0.0
2015-May-18 13:33N 39°54' W 075°12'0 0.0
2015-May-18 12:33N 39°54' W 075°12'0 0.0
2015-May-18 11:33N 39°54' W 075°12'0 0.0
2015-May-18 10:33N 39°54' W 075°12'0 0.0
2015-May-18 09:33N 39°54' W 075°12'0 0.0
2015-May-18 08:33N 39°54' W 075°12'0 0.0
2015-May-18 07:33N 39°54' W 075°12'0 0.0
2015-May-18 06:33N 39°54' W 075°12'0 0.0
2015-May-18 05:33N 39°54' W 075°12'0 0.0
2015-May-18 04:33N 39°54' W 075°12'0 0.0
2015-May-18 03:33N 39°54' W 075°12'0 0.0
2015-May-18 02:33N 39°54' W 075°12'0 0.0
2015-May-18 01:33N 39°54' W 075°12'0 0.0
2015-May-18 00:33N 39°54' W 075°12'0 0.0
2015-May-17 23:34N 39°54' W 075°12'7 6.6
2015-May-17 22:33N 39°51' W 075°20'9 9.0
2015-May-17 21:33N 39°45' W 075°29'9 8.7
2015-May-17 20:33N 39°37' W 075°35'6 6.3
2015-May-17 19:33N 39°33' W 075°40'8 8.1
2015-May-17 18:33N 39°32' W 075°51'9 9.3
2015-May-17 17:33N 39°26' W 076°00'10 9.5
2015-May-17 16:33N 39°21' W 076°10'16 8.0
2015-May-17 14:31N 39°11' W 076°27'7 6.5
2015-May-17 13:29N 39°15' W 076°34'0 0.0
2015-May-17 12:29N 39°15' W 076°34'0 0.0
2015-May-17 11:33N 39°15' W 076°34'1 1.2
2015-May-17 10:33N 39°16' W 076°33'1 1.1
2015-May-17 09:32N 39°15' W 076°34'0 0.0
2015-May-17 08:31N 39°15' W 076°34'0 0.0
2015-May-17 07:33N 39°15' W 076°34'0 0.0
2015-May-17 06:33N 39°15' W 076°34'0 0.0
2015-May-17 05:32N 39°15' W 076°34'0 0.0
2015-May-17 04:32N 39°15' W 076°34'0 0.0
2015-May-17 03:33N 39°15' W 076°34'1 0.3
2015-May-17 01:32N 39°15' W 076°34'1 0.6
2015-May-17 00:31N 39°15' W 076°34'0 0.0
2015-May-16 23:30N 39°15' W 076°34'0 0.0
2015-May-16 22:33N 39°15' W 076°34'0 0.0
2015-May-16 21:33N 39°15' W 076°34'0 0.0
2015-May-16 20:33N 39°15' W 076°34'0 0.0
2015-May-16 19:18N 39°15' W 076°34'0 0.0
2015-May-16 17:30N 39°15' W 076°34'0 0.0
2015-May-16 16:13N 39°15' W 076°34'2 2.9
2015-May-16 15:26N 39°17' W 076°35'2 2.4
2015-May-16 14:30N 39°15' W 076°34'0 0.0
2015-May-16 13:23N 39°15' W 076°34'2 2.3
2015-May-16 12:31N 39°16' W 076°35'2 1.7
2015-May-16 11:25N 39°15' W 076°34'0 0.2
2015-May-16 10:12N 39°15' W 076°34'0 0.0
2015-May-16 09:23N 39°15' W 076°34'0 0.0
2015-May-16 08:30N 39°15' W 076°34'0 0.0
2015-May-16 07:23N 39°15' W 076°34'0 0.0
2015-May-16 06:26N 39°15' W 076°34'0 0.0
2015-May-16 05:20N 39°15' W 076°34'0 0.0
2015-May-16 04:24N 39°15' W 076°34'0 0.0
2015-May-16 03:33N 39°15' W 076°34'0 0.0
2015-May-16 02:28N 39°15' W 076°34'0 0.0
2015-May-16 01:32N 39°15' W 076°34'0 0.0
2015-May-16 00:32N 39°15' W 076°34'0 0.0
2015-May-15 23:32N 39°15' W 076°34'0 0.0
2015-May-15 22:30N 39°15' W 076°34'0 0.0
2015-May-15 21:33N 39°15' W 076°34'0 0.0
2015-May-15 19:30N 39°15' W 076°34'0 0.0
2015-May-15 18:31N 39°15' W 076°34'1 0.5
2015-May-15 16:23N 39°16' W 076°33'0 0.0
2015-May-15 15:31N 39°16' W 076°33'0 0.0
2015-May-15 14:28N 39°16' W 076°33'0 0.0
2015-May-15 12:21N 39°16' W 076°33'0 0.0
2015-May-15 11:33N 39°16' W 076°33'0 0.0
2015-May-15 10:17N 39°16' W 076°33'0 0.0
2015-May-15 09:26N 39°16' W 076°33'0 0.0
2015-May-15 08:19N 39°16' W 076°33'0 0.0
2015-May-15 07:33N 39°16' W 076°33'4 3.7
2015-May-15 06:33N 39°12' W 076°31'27 8.9
2015-May-15 03:33N 39°26' W 076°01'1212.0
2015-May-15 02:33N 39°32' W 075°48'1211.6
2015-May-15 01:33N 39°34' W 075°33'9 8.5
2015-May-15 00:33N 39°42' W 075°31'9 9.1
2015-May-14 23:33N 39°49' W 075°23'9 9.3
2015-May-14 22:33N 39°53' W 075°12'1 0.8
2015-May-14 21:30N 39°54' W 075°12'0 0.0
2015-May-14 20:25N 39°54' W 075°12'0 0.0
2015-May-14 19:32N 39°54' W 075°12'0 0.0
2015-May-14 18:32N 39°54' W 075°12'0 0.0
2015-May-14 17:30N 39°54' W 075°12'0 0.0
2015-May-14 16:31N 39°54' W 075°12'0 0.0
2015-May-14 15:23N 39°54' W 075°12'0 0.0
2015-May-14 14:32N 39°54' W 075°12'0 0.0
2015-May-14 13:33N 39°54' W 075°12'0 0.0
2015-May-14 12:33N 39°54' W 075°12'0 0.0
2015-May-14 11:31N 39°54' W 075°12'0 0.0
2015-May-14 10:32N 39°54' W 075°12'0 0.0
2015-May-14 09:32N 39°54' W 075°12'0 0.0
2015-May-14 08:33N 39°54' W 075°12'0 0.0
2015-May-14 07:31N 39°54' W 075°12'0 0.0
2015-May-14 06:31N 39°54' W 075°12'0 0.0
2015-May-14 05:32N 39°54' W 075°12'0 0.0
2015-May-14 04:33N 39°54' W 075°12'0 0.0
2015-May-14 03:33N 39°54' W 075°12'0 0.0
2015-May-14 02:31N 39°54' W 075°12'0 0.0
2015-May-14 01:32N 39°54' W 075°12'0 0.0
2015-May-14 00:32N 39°54' W 075°12'0 0.0
2015-May-13 23:33N 39°54' W 075°12'0 0.0
2015-May-13 22:31N 39°54' W 075°12'0 0.0
2015-May-13 21:31N 39°54' W 075°12'0 0.0
2015-May-13 20:29N 39°54' W 075°12'0 0.0
2015-May-13 19:33N 39°54' W 075°12'0 0.0
2015-May-13 18:33N 39°54' W 075°12'0 0.0
2015-May-13 17:31N 39°54' W 075°12'0 0.0
2015-May-13 16:32N 39°54' W 075°12'0 0.0
2015-May-13 15:29N 39°54' W 075°12'0 0.0
2015-May-13 14:33N 39°54' W 075°12'0 0.0
2015-May-13 13:31N 39°54' W 075°12'0 0.0
2015-May-13 12:31N 39°54' W 075°12'0 0.0
2015-May-13 11:32N 39°54' W 075°12'0 0.0
2015-May-13 10:30N 39°54' W 075°12'0 0.0
2015-May-13 09:33N 39°54' W 075°12'0 0.0
2015-May-13 08:31N 39°54' W 075°12'0 0.0
2015-May-13 07:32N 39°54' W 075°12'0 0.0
2015-May-13 06:33N 39°54' W 075°12'0 0.0
2015-May-13 05:33N 39°54' W 075°12'0 0.0
2015-May-13 04:31N 39°54' W 075°12'0 0.0
2015-May-13 03:32N 39°54' W 075°12'  

Dump ship's entire track history